createdAt,value
2023-02-18T00:00:19.181Z,68.29
2023-02-18T00:05:23.125Z,68.01
2023-02-18T00:10:26.047Z,68.24
2023-02-18T00:15:29.030Z,68.65
2023-02-18T00:20:33.665Z,68.71
2023-02-18T00:25:36.594Z,68.65
2023-02-18T00:30:44.194Z,68.77
2023-02-18T00:35:47.640Z,68.22
2023-02-18T00:40:50.656Z,68.13
2023-02-18T00:45:54.295Z,67.99
2023-02-18T00:50:57.295Z,68.25
2023-02-18T00:56:01.475Z,68.21
2023-02-18T01:01:07.695Z,68.05
2023-02-18T01:06:12.289Z,68.08
2023-02-18T01:11:15.415Z,67.74
2023-02-18T01:16:18.550Z,67.75
2023-02-18T01:21:21.492Z,67.45
2023-02-18T01:26:24.473Z,67.15
2023-02-18T01:31:27.855Z,66.90
2023-02-18T01:36:31.042Z,66.66
2023-02-18T01:41:33.882Z,66.56
2023-02-18T01:46:37.485Z,66.75
2023-02-18T01:51:47.273Z,66.93
2023-02-18T01:57:05.325Z,67.18
2023-02-18T02:02:16.934Z,67.24
2023-02-18T02:07:23.694Z,67.18
2023-02-18T02:12:45.313Z,67.29
2023-02-18T02:18:40.526Z,67.35
2023-02-18T02:24:20.673Z,67.38
2023-02-18T02:29:44.768Z,67.32
2023-02-18T02:35:07.206Z,67.09
2023-02-18T02:40:09.953Z,66.77
2023-02-18T02:46:07.444Z,66.69
2023-02-18T02:51:45.053Z,66.50
2023-02-18T02:56:48.676Z,66.32
2023-02-18T03:02:21.927Z,66.10
2023-02-18T03:08:01.612Z,66.35
2023-02-18T03:13:19.927Z,66.58
2023-02-18T03:19:02.185Z,66.62
2023-02-18T03:24:16.706Z,66.61
2023-02-18T03:29:21.555Z,66.48
2023-02-18T03:34:33.674Z,66.53
2023-02-18T03:39:39.393Z,66.50
2023-02-18T03:44:42.323Z,66.45
2023-02-18T03:49:45.887Z,66.50
2023-02-18T03:54:48.982Z,66.56
2023-02-18T03:59:51.735Z,66.49
2023-02-18T04:04:54.726Z,66.51
2023-02-18T04:09:57.693Z,66.27
2023-02-18T04:15:00.451Z,66.46
2023-02-18T04:20:04.734Z,66.82
2023-02-18T04:25:08.687Z,67.10
2023-02-18T04:30:12.641Z,67.50
2023-02-18T04:35:15.835Z,67.67
2023-02-18T04:40:18.897Z,67.97
2023-02-18T04:45:21.841Z,68.13
2023-02-18T04:50:24.822Z,68.65
2023-02-18T04:55:27.725Z,69.11
2023-02-18T05:00:30.559Z,70.14
2023-02-18T05:05:33.616Z,70.28
2023-02-18T05:10:39.201Z,70.26
2023-02-18T05:15:42.461Z,70.71
2023-02-18T05:20:45.441Z,71.71
2023-02-18T05:25:48.607Z,73.03
2023-02-18T05:30:51.535Z,74.14
2023-02-18T05:35:54.885Z,74.47
2023-02-18T05:40:57.950Z,75.75
2023-02-18T05:46:01.201Z,77.09
2023-02-18T05:51:05.162Z,77.66
2023-02-18T05:56:08.651Z,79.02
2023-02-18T06:01:11.754Z,79.84
2023-02-18T06:06:14.968Z,79.83
2023-02-18T06:11:18.081Z,80.22
2023-02-18T06:16:21.226Z,80.38
2023-02-18T06:21:24.646Z,80.23
2023-02-18T06:26:27.724Z,80.19
2023-02-18T06:31:30.833Z,79.63
2023-02-18T06:36:33.904Z,80.00
2023-02-18T06:41:36.898Z,80.15
2023-02-18T06:46:40.062Z,79.90
2023-02-18T06:51:43.067Z,79.41
2023-02-18T06:56:46.049Z,78.71
2023-02-18T07:01:49.007Z,78.07
2023-02-18T07:06:52.104Z,77.94
2023-02-18T07:11:55.070Z,77.76
2023-02-18T07:16:58.279Z,78.43
2023-02-18T07:22:01.632Z,78.98
2023-02-18T07:27:05.572Z,79.21
2023-02-18T07:32:08.538Z,79.22
2023-02-18T07:37:12.506Z,79.59
2023-02-18T07:42:15.672Z,79.16
2023-02-18T07:47:21.573Z,79.18
2023-02-18T07:52:24.990Z,78.93
2023-02-18T07:57:27.668Z,78.85
2023-02-18T08:02:30.480Z,78.13
2023-02-18T08:07:33.266Z,77.79
2023-02-18T08:12:36.229Z,75.95
2023-02-18T08:17:39.087Z,75.26
2023-02-18T08:22:42.076Z,74.22
2023-02-18T08:27:45.029Z,74.72
2023-02-18T08:32:48.041Z,73.76
2023-02-18T08:37:53.110Z,73.36
2023-02-18T08:42:57.462Z,73.09
2023-02-18T08:48:18.286Z,72.75
2023-02-18T08:53:23.224Z,72.42
2023-02-18T08:58:26.213Z,71.51
2023-02-18T09:03:29.416Z,71.12
2023-02-18T09:08:32.410Z,71.09
2023-02-18T09:13:35.392Z,70.42
2023-02-18T09:18:38.932Z,68.88
2023-02-18T09:23:42.982Z,68.43
2023-02-18T09:28:45.878Z,68.20
2023-02-18T09:33:56.588Z,68.24
2023-02-18T09:39:00.214Z,67.26
2023-02-18T09:44:11.735Z,65.85
2023-02-18T09:49:26.465Z,64.00
2023-02-18T09:54:30.050Z,63.67
2023-02-18T09:59:33.073Z,64.17
2023-02-18T10:04:44.980Z,64.97
2023-02-18T10:09:51.999Z,64.92
2023-02-18T10:15:01.368Z,66.24
2023-02-18T10:20:07.933Z,66.82
2023-02-18T10:25:20.696Z,66.16
2023-02-18T10:30:55.635Z,66.47
2023-02-18T10:36:30.255Z,66.88
2023-02-18T10:42:18.225Z,67.17
2023-02-18T10:47:30.948Z,68.35
2023-02-18T10:52:47.573Z,69.36
2023-02-18T10:57:55.662Z,70.88
2023-02-18T11:03:38.949Z,72.45
2023-02-18T11:08:45.415Z,72.76
2023-02-18T11:13:59.020Z,72.79
2023-02-18T11:19:04.506Z,72.88
2023-02-18T11:24:15.366Z,72.74
2023-02-18T11:29:20.163Z,72.39
2023-02-18T11:34:33.236Z,72.62
2023-02-18T11:39:36.610Z,72.74
2023-02-18T11:44:53.487Z,72.15
2023-02-18T11:50:10.833Z,71.43
2023-02-18T11:55:22.602Z,71.40
2023-02-18T12:00:40.667Z,71.50
2023-02-18T12:05:45.836Z,70.86
2023-02-18T12:10:56.056Z,71.01
2023-02-18T12:16:26.886Z,70.41
2023-02-18T12:21:53.424Z,68.44
2023-02-18T12:27:22.703Z,67.45
2023-02-18T12:32:56.715Z,67.08
2023-02-18T12:38:11.193Z,65.44
2023-02-18T12:43:48.837Z,64.07
2023-02-18T12:49:21.580Z,63.03
2023-02-18T12:55:08.335Z,61.59
2023-02-18T13:00:36.126Z,61.67
2023-02-18T13:05:54.609Z,62.12
2023-02-18T13:11:12.823Z,62.00
2023-02-18T13:16:19.908Z,61.84
2023-02-18T13:21:24.051Z,60.85
2023-02-18T13:26:31.389Z,60.45
2023-02-18T13:32:10.633Z,58.60
2023-02-18T13:37:37.375Z,58.83
2023-02-18T13:42:40.377Z,57.58
2023-02-18T13:47:49.849Z,57.36
2023-02-18T13:53:08.081Z,56.79
2023-02-18T13:58:23.811Z,57.42
2023-02-18T14:03:36.213Z,57.55
2023-02-18T14:08:40.497Z,58.37
2023-02-18T14:14:25.857Z,60.48
2023-02-18T14:19:30.189Z,61.75
2023-02-18T14:24:49.950Z,61.46
2023-02-18T14:29:53.078Z,62.00
2023-02-18T14:35:20.986Z,62.21
2023-02-18T14:40:42.902Z,61.40
2023-02-18T14:46:33.278Z,60.96
2023-02-18T14:51:36.551Z,60.64
2023-02-18T14:56:58.621Z,60.33
2023-02-18T15:02:01.813Z,60.10
2023-02-18T15:07:10.019Z,60.40
2023-02-18T15:12:19.730Z,61.04
2023-02-18T15:17:29.527Z,61.29
2023-02-18T15:22:35.513Z,61.68
2023-02-18T15:27:44.469Z,61.96
2023-02-18T15:32:54.296Z,62.14
2023-02-18T15:38:00.323Z,62.64
2023-02-18T15:43:06.559Z,63.07
2023-02-18T15:48:45.377Z,63.94
2023-02-18T15:53:52.575Z,64.24
2023-02-18T15:59:35.548Z,65.00
2023-02-18T16:04:41.271Z,65.79
2023-02-18T16:09:44.243Z,66.07
2023-02-18T16:14:50.445Z,67.17
2023-02-18T16:20:18.348Z,67.49
2023-02-18T16:25:41.344Z,67.88
2023-02-18T16:30:46.244Z,69.20
2023-02-18T16:35:50.726Z,68.56
2023-02-18T16:40:55.326Z,67.56
2023-02-18T16:46:06.298Z,67.59
2023-02-18T16:51:24.004Z,67.95
2023-02-18T16:56:33.220Z,68.40
2023-02-18T17:01:44.859Z,68.64
2023-02-18T17:06:48.735Z,69.36
2023-02-18T17:11:55.457Z,69.54
2023-02-18T17:16:58.941Z,69.96
2023-02-18T17:22:01.839Z,70.26
2023-02-18T17:27:04.582Z,70.99
2023-02-18T17:32:08.595Z,71.13
2023-02-18T17:37:14.733Z,72.12
2023-02-18T17:42:17.769Z,73.02
2023-02-18T17:47:20.770Z,73.94
2023-02-18T17:52:31.212Z,74.80
2023-02-18T17:57:34.130Z,75.82
2023-02-18T18:02:37.568Z,77.98
2023-02-18T18:07:40.573Z,79.25
2023-02-18T18:12:44.917Z,78.96
2023-02-18T18:17:48.204Z,77.67
2023-02-18T18:22:54.891Z,75.99
2023-02-18T18:27:58.423Z,74.08
2023-02-18T18:33:02.524Z,71.41
2023-02-18T18:38:06.366Z,70.21
2023-02-18T18:43:21.236Z,68.60
2023-02-18T18:48:24.843Z,66.77
2023-02-18T18:53:32.125Z,66.00
2023-02-18T18:58:35.235Z,65.41
2023-02-18T19:03:38.601Z,65.59
2023-02-18T19:08:41.857Z,65.56
2023-02-18T19:13:45.987Z,66.38
2023-02-18T19:18:49.152Z,67.03
2023-02-18T19:23:52.099Z,66.79
2023-02-18T19:28:54.934Z,67.06
2023-02-18T19:33:57.807Z,67.08
2023-02-18T19:39:00.780Z,67.28
2023-02-18T19:44:04.523Z,67.18
2023-02-18T19:49:07.555Z,66.55
2023-02-18T19:54:10.537Z,66.89
2023-02-18T19:59:13.523Z,66.63
2023-02-18T20:04:17.012Z,66.61
2023-02-18T20:09:20.179Z,66.40
2023-02-18T20:14:23.990Z,66.51
2023-02-18T20:19:30.915Z,66.55
2023-02-18T20:24:35.084Z,66.74
2023-02-18T20:29:38.334Z,67.08
2023-02-18T20:34:43.732Z,67.62
2023-02-18T20:39:46.723Z,67.22
2023-02-18T20:44:51.555Z,67.42
2023-02-18T20:49:54.599Z,67.38
2023-02-18T20:54:57.640Z,67.36
2023-02-18T21:00:00.727Z,66.55
2023-02-18T21:05:04.108Z,65.27
2023-02-18T21:10:07.910Z,64.33
2023-02-18T21:15:10.977Z,63.14
2023-02-18T21:20:14.046Z,62.52
2023-02-18T21:25:17.007Z,62.14
2023-02-18T21:30:20.458Z,61.76
2023-02-18T21:35:25.188Z,61.16
2023-02-18T21:40:28.550Z,60.95
2023-02-18T21:45:31.677Z,61.02
2023-02-18T21:50:34.596Z,61.01
2023-02-18T21:55:37.587Z,61.03
2023-02-18T22:00:40.507Z,61.23
2023-02-18T22:05:44.364Z,61.46
2023-02-18T22:10:47.320Z,61.80
2023-02-18T22:15:57.779Z,62.53
2023-02-18T22:21:04.356Z,62.79
2023-02-18T22:26:09.624Z,63.73
2023-02-18T22:31:14.239Z,64.34
2023-02-18T22:36:19.502Z,64.61
2023-02-18T22:41:24.801Z,65.31
2023-02-18T22:46:30.378Z,65.78
2023-02-18T22:51:37.883Z,65.29
2023-02-18T22:56:41.768Z,65.28
2023-02-18T23:01:53.001Z,65.63
2023-02-18T23:06:56.939Z,65.84
2023-02-18T23:12:00.362Z,66.04
2023-02-18T23:17:14.345Z,66.58
2023-02-18T23:22:24.817Z,66.71
2023-02-18T23:27:29.026Z,66.67
2023-02-18T23:32:32.088Z,66.99
2023-02-18T23:37:53.603Z,66.41
2023-02-18T23:42:56.637Z,66.19
2023-02-18T23:47:59.753Z,65.30
2023-02-18T23:53:02.561Z,65.46
2023-02-18T23:58:05.856Z,65.98
